Time;durP1;ratioP1;P1;durP2;ratioP2;P2;SDS_P1;SDS_P2;PMS_P1;PMS_P2;Temp;Humidity;BMP_temperature;BMP_pressure;BME280_temperature;BME280_humidity;BME280_pressure;Samples;Min_cycle;Max_cycle;Signal;HPM_P1;HPM_P2
2021/04/10 00:00:50;;;;;;;3.63;2.23;;;;;;;;;;4985760;28;20228;-77
2021/04/10 00:03:18;;;;;;;4.57;2.47;;;;;;;;;;4989107;28;20239;-79
2021/04/10 00:05:45;;;;;;;3.00;2.60;;;;;;;;;;4996646;28;20224;-78
2021/04/10 00:08:15;;;;;;;4.73;1.77;;;;;;;;;;4904067;28;20240;-78
2021/04/10 00:10:42;;;;;;;6.27;1.90;;;;;;;;;;4892916;29;20607;-77
2021/04/10 00:13:10;;;;;;;3.17;2.10;;;;;;;;;;4899379;28;20233;-77
2021/04/10 00:15:38;;;;;;;4.20;1.80;;;;;;;;;;4940774;28;20228;-77
2021/04/10 00:18:05;;;;;;;3.77;2.00;;;;;;;;;;4876945;28;20255;-78
2021/04/10 00:20:33;;;;;;;2.97;1.70;;;;;;;;;;4899766;28;20243;-79
2021/04/10 00:23:00;;;;;;;2.47;1.67;;;;;;;;;;4988785;28;20232;-78
2021/04/10 00:25:29;;;;;;;5.63;2.00;;;;;;;;;;4903488;28;20605;-78
2021/04/10 00:27:56;;;;;;;3.70;1.70;;;;;;;;;;4905800;28;20240;-78
2021/04/10 00:30:24;;;;;;;5.10;1.50;;;;;;;;;;4901768;28;20243;-78
2021/04/10 00:32:52;;;;;;;3.27;1.80;;;;;;;;;;4904460;28;20232;-78
2021/04/10 00:35:20;;;;;;;3.13;1.70;;;;;;;;;;4908049;28;20231;-78
2021/04/10 00:37:47;;;;;;;3.70;1.80;;;;;;;;;;4908331;28;20232;-79
2021/04/10 00:40:15;;;;;;;4.13;1.70;;;;;;;;;;4906388;28;20248;-78
2021/04/10 00:42:43;;;;;;;7.33;2.40;;;;;;;;;;4863313;28;21707;-81
2021/04/10 00:45:12;;;;;;;3.70;2.17;;;;;;;;;;4873369;28;20254;-78
2021/04/10 00:47:40;;;;;;;4.37;1.87;;;;;;;;;;4891174;29;20720;-78
2021/04/10 00:50:09;;;;;;;4.30;2.00;;;;;;;;;;4906874;29;20239;-78
2021/04/10 00:52:37;;;;;;;3.20;1.80;;;;;;;;;;4884869;28;20247;-78
2021/04/10 00:55:07;;;;;;;3.63;1.60;;;;;;;;;;4903719;28;20235;-78
2021/04/10 00:57:35;;;;;;;6.03;2.27;;;;;;;;;;4904411;29;20235;-78
2021/04/10 01:00:05;;;;;;;5.63;2.10;;;;;;;;;;4884882;28;20240;-78
2021/04/10 01:02:33;;;;;;;2.43;1.50;;;;;;;;;;4908431;28;20244;-78
2021/04/10 01:05:01;;;;;;;2.90;2.00;;;;;;;;;;4923348;28;20236;-79
2021/04/10 01:07:29;;;;;;;2.33;1.40;;;;;;;;;;4908088;28;20231;-79
2021/04/10 01:09:58;;;;;;;9.57;1.63;;;;;;;;;;4904129;28;20737;-79
2021/04/10 01:12:34;;;;;;;3.73;1.20;;;;;;;;;;4916739;28;20263;-82
2021/04/10 01:15:10;;;;;;;4.20;1.80;;;;;;;;;;4927999;28;20228;-81
2021/04/10 01:17:45;;;;;;;1.87;1.33;;;;;;;;;;4909493;28;20236;-79
2021/04/10 01:20:27;;;;;;;2.00;1.43;;;;;;;;;;4889524;28;20239;-80
2021/04/10 01:23:22;;;;;;;3.20;1.70;;;;;;;;;;4905618;28;20239;-79
2021/04/10 01:25:59;;;;;;;3.33;1.60;;;;;;;;;;4908221;28;20228;-79
2021/04/10 01:28:45;;;;;;;3.67;1.30;;;;;;;;;;4886746;28;20590;-79
2021/04/10 01:31:15;;;;;;;2.70;1.57;;;;;;;;;;4905916;28;20236;-79
2021/04/10 01:33:48;;;;;;;2.40;1.80;;;;;;;;;;4893498;29;20231;-79
2021/04/10 01:36:19;;;;;;;3.40;1.90;;;;;;;;;;4912512;28;20239;-79
2021/04/10 01:38:48;;;;;;;3.73;1.50;;;;;;;;;;4935704;28;20254;-79
2021/04/10 01:41:17;;;;;;;3.03;1.60;;;;;;;;;;4894962;28;20246;-79
2021/04/10 01:43:46;;;;;;;3.07;1.73;;;;;;;;;;4909272;28;20229;-79
2021/04/10 01:46:15;;;;;;;7.03;1.60;;;;;;;;;;4916154;28;20251;-79
2021/04/10 01:48:44;;;;;;;4.87;2.20;;;;;;;;;;4896420;28;20741;-79
2021/04/10 01:51:14;;;;;;;2.27;1.33;;;;;;;;;;4946013;28;20243;-79
2021/04/10 01:53:43;;;;;;;3.40;1.83;;;;;;;;;;4919073;28;20217;-79
2021/04/10 01:56:11;;;;;;;4.80;1.40;;;;;;;;;;4904056;28;20567;-79
2021/04/10 01:58:49;;;;;;;3.53;1.60;;;;;;;;;;4941046;28;20228;-80
2021/04/10 02:01:21;;;;;;;3.03;1.60;;;;;;;;;;4943919;28;20233;-79
2021/04/10 02:03:50;;;;;;;5.03;1.70;;;;;;;;;;4992811;28;20795;-79
2021/04/10 02:06:22;;;;;;;7.13;1.37;;;;;;;;;;5003594;28;20258;-79
2021/04/10 02:08:57;;;;;;;4.03;1.57;;;;;;;;;;4946666;28;20230;-79
2021/04/10 02:11:34;;;;;;;2.63;1.40;;;;;;;;;;4900717;28;20250;-82
2021/04/10 02:14:06;;;;;;;5.13;1.20;;;;;;;;;;4907879;28;20232;-79
2021/04/10 02:16:43;;;;;;;7.00;1.53;;;;;;;;;;4900348;28;20240;-79
2021/04/10 02:19:16;;;;;;;4.43;1.73;;;;;;;;;;4905332;29;20242;-82
2021/04/10 02:21:48;;;;;;;4.97;1.53;;;;;;;;;;4911077;28;20244;-81
2021/04/10 02:24:17;;;;;;;11.70;1.90;;;;;;;;;;4900077;28;20240;-79
2021/04/10 02:26:54;;;;;;;3.80;1.50;;;;;;;;;;4987036;28;20231;-79
2021/04/10 02:29:26;;;;;;;6.23;1.70;;;;;;;;;;4990946;28;20568;-79
2021/04/10 02:31:57;;;;;;;4.17;1.50;;;;;;;;;;4934324;28;20241;-79
2021/04/10 02:34:31;;;;;;;3.37;1.50;;;;;;;;;;4920044;28;20228;-79
2021/04/10 02:37:06;;;;;;;4.50;1.57;;;;;;;;;;4898933;28;20730;-79
2021/04/10 02:39:36;;;;;;;2.80;1.33;;;;;;;;;;4918088;29;20518;-79
2021/04/10 02:42:06;;;;;;;5.40;1.67;;;;;;;;;;4889655;28;20237;-79
2021/04/10 02:44:37;;;;;;;4.90;1.40;;;;;;;;;;4806156;28;20825;-79
2021/04/10 02:47:07;;;;;;;3.50;1.40;;;;;;;;;;4902185;28;20244;-79
2021/04/10 02:49:40;;;;;;;3.13;1.33;;;;;;;;;;4919033;28;20233;-79
2021/04/10 02:52:10;;;;;;;4.27;1.70;;;;;;;;;;4927843;28;20234;-79
2021/04/10 02:54:43;;;;;;;1.87;1.30;;;;;;;;;;4925914;28;20587;-79
2021/04/10 02:57:12;;;;;;;2.00;1.17;;;;;;;;;;4920059;28;20248;-80
2021/04/10 02:59:44;;;;;;;3.30;1.40;;;;;;;;;;4954002;28;20260;-79
2021/04/10 03:02:15;;;;;;;4.53;1.33;;;;;;;;;;4948559;28;20604;-79
2021/04/10 03:04:45;;;;;;;3.53;1.80;;;;;;;;;;4990473;28;20583;-79
2021/04/10 03:07:14;;;;;;;6.13;1.90;;;;;;;;;;4988463;28;20240;-83
2021/04/10 03:09:44;;;;;;;3.00;1.30;;;;;;;;;;5001898;28;20221;-80
2021/04/10 03:12:14;;;;;;;6.13;1.93;;;;;;;;;;4999766;28;20652;-82
2021/04/10 03:14:43;;;;;;;4.17;1.73;;;;;;;;;;4985677;28;20703;-79
2021/04/10 03:17:13;;;;;;;4.30;1.70;;;;;;;;;;5001846;28;20229;-82
2021/04/10 03:19:42;;;;;;;6.07;1.83;;;;;;;;;;5021603;28;20240;-82
2021/04/10 03:22:11;;;;;;;4.63;1.67;;;;;;;;;;4903106;28;20239;-79
2021/04/10 03:24:39;;;;;;;5.00;1.53;;;;;;;;;;4924948;28;20611;-81
2021/04/10 03:27:07;;;;;;;2.70;1.30;;;;;;;;;;4952799;28;20235;-80
2021/04/10 03:29:36;;;;;;;5.43;1.40;;;;;;;;;;4895159;29;20324;-81
2021/04/10 03:32:07;;;;;;;2.20;1.17;;;;;;;;;;4902873;28;20240;-79
2021/04/10 03:34:38;;;;;;;4.83;1.70;;;;;;;;;;4890914;28;20240;-79
2021/04/10 03:37:08;;;;;;;2.13;1.53;;;;;;;;;;4913920;28;20232;-79
2021/04/10 03:39:38;;;;;;;4.93;1.60;;;;;;;;;;4888722;28;20267;-79
2021/04/10 03:42:09;;;;;;;4.07;1.40;;;;;;;;;;4904089;28;20325;-79
2021/04/10 03:44:36;;;;;;;3.27;1.40;;;;;;;;;;4932888;28;20617;-79
2021/04/10 03:47:25;;;;;;;3.80;1.63;;;;;;;;;;4903653;28;20241;-79
2021/04/10 03:49:53;;;;;;;3.13;1.40;;;;;;;;;;4898813;28;20613;-78
2021/04/10 03:52:20;;;;;;;2.83;1.40;;;;;;;;;;4891170;28;20237;-81
2021/04/10 03:54:48;;;;;;;2.77;1.63;;;;;;;;;;4889168;28;20227;-81
2021/04/10 03:57:20;;;;;;;6.23;1.57;;;;;;;;;;4882445;29;20232;-79
2021/04/10 03:59:49;;;;;;;3.60;1.83;;;;;;;;;;4928730;28;20226;-80
2021/04/10 04:02:22;;;;;;;3.67;1.50;;;;;;;;;;4927802;28;20611;-79
2021/04/10 04:04:51;;;;;;;4.77;1.80;;;;;;;;;;4904309;28;20730;-79
2021/04/10 04:07:18;;;;;;;3.87;1.70;;;;;;;;;;4913905;29;20224;-81
2021/04/10 04:09:46;;;;;;;9.03;1.70;;;;;;;;;;4918253;28;20238;-85
2021/04/10 04:12:13;;;;;;;3.03;1.43;;;;;;;;;;4900179;28;20384;-79
2021/04/10 04:14:41;;;;;;;3.30;1.73;;;;;;;;;;4893927;28;20232;-79
2021/04/10 04:17:09;;;;;;;2.37;1.23;;;;;;;;;;4908002;28;20232;-82
2021/04/10 04:19:36;;;;;;;3.93;1.40;;;;;;;;;;4889536;28;20248;-84
2021/04/10 04:22:06;;;;;;;5.57;1.40;;;;;;;;;;4902186;29;20232;-79
2021/04/10 04:24:33;;;;;;;5.13;1.43;;;;;;;;;;4901204;29;20244;-79
2021/04/10 04:27:01;;;;;;;3.93;1.70;;;;;;;;;;4904808;29;20247;-83
2021/04/10 04:29:28;;;;;;;3.67;1.20;;;;;;;;;;4887673;28;20229;-78
2021/04/10 04:31:56;;;;;;;5.87;2.73;;;;;;;;;;4916779;28;20225;-79
2021/04/10 04:34:24;;;;;;;3.00;1.40;;;;;;;;;;4905679;28;20217;-79
2021/04/10 04:36:51;;;;;;;5.83;1.50;;;;;;;;;;4903455;29;20246;-81
2021/04/10 04:39:20;;;;;;;3.97;1.47;;;;;;;;;;4911738;28;20235;-79
2021/04/10 04:41:47;;;;;;;3.50;1.50;;;;;;;;;;4893939;28;20232;-81
2021/04/10 04:44:15;;;;;;;4.07;1.70;;;;;;;;;;4880771;28;20848;-80
2021/04/10 04:46:42;;;;;;;2.40;1.43;;;;;;;;;;4875808;28;20242;-78
2021/04/10 04:49:10;;;;;;;2.67;1.30;;;;;;;;;;4894468;29;20247;-79
2021/04/10 04:51:37;;;;;;;3.40;1.40;;;;;;;;;;4904278;28;20242;-81
2021/04/10 04:54:05;;;;;;;3.03;1.53;;;;;;;;;;4894781;28;20231;-79
2021/04/10 04:56:34;;;;;;;3.53;1.30;;;;;;;;;;4893539;28;20244;-79
2021/04/10 04:59:02;;;;;;;6.10;1.67;;;;;;;;;;4914537;28;20232;-79
2021/04/10 05:01:29;;;;;;;2.40;1.07;;;;;;;;;;4897671;28;20235;-80
2021/04/10 05:03:57;;;;;;;1.70;1.20;;;;;;;;;;4906544;29;20235;-78
2021/04/10 05:06:25;;;;;;;5.80;1.90;;;;;;;;;;4885462;28;20235;-80
2021/04/10 05:08:53;;;;;;;4.17;1.57;;;;;;;;;;4971541;28;20229;-79
2021/04/10 05:11:20;;;;;;;4.17;1.70;;;;;;;;;;4913467;28;20246;-79
2021/04/10 05:13:50;;;;;;;2.73;1.07;;;;;;;;;;4899377;28;20236;-80
2021/04/10 05:16:18;;;;;;;4.27;1.50;;;;;;;;;;4903024;28;20617;-82
2021/04/10 05:18:45;;;;;;;4.10;1.60;;;;;;;;;;4907790;29;20240;-79
2021/04/10 05:21:13;;;;;;;3.27;1.30;;;;;;;;;;4908597;28;20236;-79
2021/04/10 05:23:40;;;;;;;2.17;1.40;;;;;;;;;;4886980;28;20237;-81
2021/04/10 05:26:08;;;;;;;2.97;1.50;;;;;;;;;;4900508;28;20232;-78
2021/04/10 05:28:35;;;;;;;3.03;1.43;;;;;;;;;;4884948;29;20232;-79
2021/04/10 05:31:04;;;;;;;2.60;1.30;;;;;;;;;;4898689;29;20248;-80
2021/04/10 05:33:32;;;;;;;2.90;1.30;;;;;;;;;;4896921;28;20233;-78
2021/04/10 05:36:00;;;;;;;3.53;1.33;;;;;;;;;;4904248;28;20225;-78
2021/04/10 05:38:27;;;;;;;1.47;1.10;;;;;;;;;;4896417;28;20236;-79
2021/04/10 05:40:55;;;;;;;3.20;1.40;;;;;;;;;;4905048;29;20227;-79
2021/04/10 05:43:23;;;;;;;2.17;1.53;;;;;;;;;;4904268;28;20231;-80
2021/04/10 05:45:50;;;;;;;2.37;1.30;;;;;;;;;;4904109;28;20231;-78
2021/04/10 05:48:18;;;;;;;2.57;1.47;;;;;;;;;;4900599;29;20244;-79
2021/04/10 05:50:46;;;;;;;1.90;1.30;;;;;;;;;;4899688;28;20235;-79
2021/04/10 05:53:13;;;;;;;1.43;1.10;;;;;;;;;;4891887;28;20232;-79
2021/04/10 05:55:41;;;;;;;2.63;1.50;;;;;;;;;;4903882;29;20239;-80
2021/04/10 05:58:08;;;;;;;4.03;1.30;;;;;;;;;;4900640;28;20228;-79
2021/04/10 06:00:36;;;;;;;2.93;1.50;;;;;;;;;;4909612;28;20299;-78
2021/04/10 06:03:05;;;;;;;2.50;1.30;;;;;;;;;;4898161;29;20228;-78
2021/04/10 06:05:33;;;;;;;2.80;1.50;;;;;;;;;;4892344;28;20235;-78
2021/04/10 06:08:01;;;;;;;3.30;1.40;;;;;;;;;;4899856;28;20236;-78
2021/04/10 06:10:29;;;;;;;3.87;1.40;;;;;;;;;;4900373;28;20239;-79
2021/04/10 06:12:56;;;;;;;3.40;1.30;;;;;;;;;;4900692;28;20216;-77
2021/04/10 06:15:24;;;;;;;2.70;1.63;;;;;;;;;;4878625;28;20937;-80
2021/04/10 06:17:51;;;;;;;2.57;1.83;;;;;;;;;;4753913;28;20255;-82
2021/04/10 06:20:20;;;;;;;3.43;1.57;;;;;;;;;;4773978;28;20278;-83
2021/04/10 06:22:50;;;;;;;2.13;1.53;;;;;;;;;;4773167;28;20350;-79
2021/04/10 06:25:18;;;;;;;5.20;1.67;;;;;;;;;;4777891;28;20259;-81
2021/04/10 06:27:48;;;;;;;2.13;1.47;;;;;;;;;;4759151;28;20911;-83
2021/04/10 06:30:16;;;;;;;3.77;1.53;;;;;;;;;;4756114;28;21224;-82
2021/04/10 06:32:44;;;;;;;2.43;1.30;;;;;;;;;;4766370;28;21522;-83
2021/04/10 06:35:13;;;;;;;3.83;1.67;;;;;;;;;;4759013;28;20278;-82
2021/04/10 06:37:41;;;;;;;1.90;1.30;;;;;;;;;;4762861;28;20641;-80
2021/04/10 06:40:11;;;;;;;2.80;1.40;;;;;;;;;;4749321;28;20388;-80
2021/04/10 06:42:41;;;;;;;2.30;1.53;;;;;;;;;;4741480;28;20360;-83
2021/04/10 06:45:09;;;;;;;3.80;1.57;;;;;;;;;;4779575;28;21538;-80
2021/04/10 06:47:37;;;;;;;2.50;1.40;;;;;;;;;;4764497;28;20259;-83
2021/04/10 06:50:07;;;;;;;2.43;1.60;;;;;;;;;;4782668;28;21397;-79
2021/04/10 06:52:40;;;;;;;2.03;1.33;;;;;;;;;;4779282;28;21729;-80
2021/04/10 06:55:12;;;;;;;2.20;1.53;;;;;;;;;;4767002;28;20231;-80
2021/04/10 06:57:48;;;;;;;3.50;1.60;;;;;;;;;;4779072;28;20343;-84
2021/04/10 07:00:16;;;;;;;2.87;1.50;;;;;;;;;;4788030;28;21041;-83
2021/04/10 07:02:45;;;;;;;1.90;1.37;;;;;;;;;;4799569;28;20235;-82
2021/04/10 07:05:13;;;;;;;2.20;1.40;;;;;;;;;;4782904;28;20251;-79
2021/04/10 07:07:42;;;;;;;3.67;1.57;;;;;;;;;;4749099;28;20351;-81
2021/04/10 07:10:12;;;;;;;2.77;1.97;;;;;;;;;;4767132;28;20293;-79
2021/04/10 07:12:40;;;;;;;2.17;1.57;;;;;;;;;;4747551;28;21191;-81
2021/04/10 07:15:10;;;;;;;3.07;1.70;;;;;;;;;;4764049;28;20268;-81
2021/04/10 07:17:38;;;;;;;2.40;1.50;;;;;;;;;;4891408;28;20244;-79
2021/04/10 07:20:25;;;;;;;2.70;1.50;;;;;;;;;;4893826;28;20231;-79
2021/04/10 07:23:01;;;;;;;3.60;1.80;;;;;;;;;;4877507;28;20763;-81
2021/04/10 07:25:31;;;;;;;2.87;2.00;;;;;;;;;;4893385;28;20588;-83
2021/04/10 07:28:20;;;;;;;2.47;1.63;;;;;;;;;;4884961;28;20686;-79
2021/04/10 07:30:59;;;;;;;1.93;1.47;;;;;;;;;;4897460;28;20258;-79
2021/04/10 07:33:28;;;;;;;2.07;1.50;;;;;;;;;;4902441;28;20224;-79
2021/04/10 07:35:55;;;;;;;2.77;2.03;;;;;;;;;;4881747;28;20256;-79
2021/04/10 07:38:31;;;;;;;2.70;1.60;;;;;;;;;;4904847;29;20275;-79
2021/04/10 07:41:01;;;;;;;2.93;1.50;;;;;;;;;;4886343;29;20715;-79
2021/04/10 07:43:31;;;;;;;4.20;1.90;;;;;;;;;;4962289;28;20232;-78
2021/04/10 07:46:12;;;;;;;2.07;1.40;;;;;;;;;;4970811;28;20228;-78
2021/04/10 07:48:40;;;;;;;2.47;1.60;;;;;;;;;;4918880;28;20244;-81
2021/04/10 07:51:15;;;;;;;5.07;1.70;;;;;;;;;;4893818;28;20227;-78
2021/04/10 07:53:42;;;;;;;3.47;1.67;;;;;;;;;;4906707;28;20231;-78
2021/04/10 07:56:10;;;;;;;2.33;1.60;;;;;;;;;;4884089;28;20608;-79
2021/04/10 07:58:38;;;;;;;1.93;1.37;;;;;;;;;;4908037;28;20239;-78
2021/04/10 08:01:08;;;;;;;4.23;1.77;;;;;;;;;;4907133;28;20261;-78
2021/04/10 08:03:37;;;;;;;2.70;1.90;;;;;;;;;;4890995;28;20598;-79
2021/04/10 08:06:14;;;;;;;1.83;1.60;;;;;;;;;;4908641;28;20235;-78
2021/04/10 08:08:53;;;;;;;3.17;2.20;;;;;;;;;;4907390;28;20240;-78
2021/04/10 08:11:46;;;;;;;1.43;1.33;;;;;;;;;;4906328;28;20233;-79
2021/04/10 08:14:14;;;;;;;3.03;1.80;;;;;;;;;;4927815;28;20223;-79
2021/04/10 08:16:43;;;;;;;4.60;2.00;;;;;;;;;;4908548;28;20908;-81
2021/04/10 08:19:11;;;;;;;4.73;2.07;;;;;;;;;;4907209;28;20239;-82
2021/04/10 08:21:45;;;;;;;3.10;2.00;;;;;;;;;;4892918;28;20752;-78
2021/04/10 08:24:27;;;;;;;2.70;1.70;;;;;;;;;;4892541;28;20235;-79
2021/04/10 08:26:56;;;;;;;4.10;2.00;;;;;;;;;;4886224;28;20578;-79
2021/04/10 08:29:26;;;;;;;3.33;2.03;;;;;;;;;;4889936;28;20231;-78
2021/04/10 08:31:54;;;;;;;3.03;2.20;;;;;;;;;;4910476;28;20239;-79
2021/04/10 08:34:22;;;;;;;3.67;1.90;;;;;;;;;;4890884;28;20593;-78
2021/04/10 08:36:52;;;;;;;4.17;2.00;;;;;;;;;;4892317;29;20588;-78
2021/04/10 08:39:24;;;;;;;2.67;1.80;;;;;;;;;;4904166;28;20224;-79
2021/04/10 08:41:56;;;;;;;4.80;1.90;;;;;;;;;;4902951;28;20229;-79
2021/04/10 08:44:27;;;;;;;2.53;1.70;;;;;;;;;;4889929;28;20228;-82
2021/04/10 08:46:56;;;;;;;2.30;1.63;;;;;;;;;;4886848;28;20240;-79
2021/04/10 08:49:26;;;;;;;4.23;1.70;;;;;;;;;;4908220;28;20235;-79
2021/04/10 08:51:59;;;;;;;2.13;1.80;;;;;;;;;;4895933;28;20243;-78
2021/04/10 08:54:28;;;;;;;2.43;1.50;;;;;;;;;;4891140;28;20231;-82
2021/04/10 08:56:56;;;;;;;3.53;2.10;;;;;;;;;;4918398;28;20224;-79
2021/04/10 08:59:24;;;;;;;3.67;2.20;;;;;;;;;;4925974;28;20232;-78
2021/04/10 09:02:13;;;;;;;4.07;2.27;;;;;;;;;;4926423;28;20224;-87
2021/04/10 09:04:56;;;;;;;2.30;1.80;;;;;;;;;;4924524;28;20244;-78
2021/04/10 09:08:04;;;;;;;4.23;1.97;;;;;;;;;;4887030;28;21073;-78
2021/04/10 09:10:46;;;;;;;3.00;2.10;;;;;;;;;;4915798;29;20617;-79
2021/04/10 09:13:38;;;;;;;12.33;7.33;;;;;;;;;;4913921;29;20224;-80
2021/04/10 09:16:29;;;;;;;3.43;2.80;;;;;;;;;;4845017;28;20258;-80
2021/04/10 09:19:03;;;;;;;29.57;14.80;;;;;;;;;;4921220;28;20235;-82
2021/04/10 09:21:39;;;;;;;5.23;2.43;;;;;;;;;;4901159;28;20228;-81
2021/04/10 09:24:28;;;;;;;3.83;2.00;;;;;;;;;;4907633;28;20236;-79
2021/04/10 09:27:01;;;;;;;4.90;2.53;;;;;;;;;;4990255;28;20216;-79
2021/04/10 09:29:41;;;;;;;5.10;2.00;;;;;;;;;;4999579;28;20231;-79
2021/04/10 09:32:09;;;;;;;4.93;2.90;;;;;;;;;;4903942;29;20229;-78
2021/04/10 09:34:49;;;;;;;4.20;2.23;;;;;;;;;;4915372;28;20244;-79
2021/04/10 09:38:00;;;;;;;2.80;2.00;;;;;;;;;;4894327;28;20703;-81
2021/04/10 09:40:50;;;;;;;5.07;2.90;;;;;;;;;;4912710;28;20667;-79
2021/04/10 09:43:22;;;;;;;2.33;1.93;;;;;;;;;;4913643;28;20324;-78
2021/04/10 09:45:52;;;;;;;3.03;2.00;;;;;;;;;;4894878;28;20738;-78
2021/04/10 09:48:27;;;;;;;27.40;4.00;;;;;;;;;;4923602;28;20251;-78
2021/04/10 09:51:10;;;;;;;3.17;2.50;;;;;;;;;;4913873;28;20232;-78
2021/04/10 09:53:38;;;;;;;3.20;2.40;;;;;;;;;;4912081;28;20232;-79
2021/04/10 09:56:14;;;;;;;3.87;2.10;;;;;;;;;;4905517;28;20357;-78
2021/04/10 09:58:47;;;;;;;35.80;29.60;;;;;;;;;;4920826;28;20220;-77
2021/04/10 10:01:18;;;;;;;6.03;4.90;;;;;;;;;;4930358;28;20228;-78
2021/04/10 10:03:47;;;;;;;3.90;2.23;;;;;;;;;;4914917;28;20228;-78
2021/04/10 10:06:23;;;;;;;3.10;2.07;;;;;;;;;;4910774;28;20243;-78
2021/04/10 10:08:52;;;;;;;7.53;4.67;;;;;;;;;;4910481;28;20258;-78
2021/04/10 10:11:20;;;;;;;3.40;2.07;;;;;;;;;;4947110;28;20236;-78
2021/04/10 10:13:48;;;;;;;4.13;2.10;;;;;;;;;;4973381;28;20239;-79
2021/04/10 10:16:29;;;;;;;6.17;3.97;;;;;;;;;;4913766;28;20231;-78
2021/04/10 10:18:57;;;;;;;2.40;2.07;;;;;;;;;;4918860;28;20244;-78
2021/04/10 10:21:25;;;;;;;6.60;2.40;;;;;;;;;;4911617;28;20244;-77
2021/04/10 10:23:54;;;;;;;3.70;3.03;;;;;;;;;;4913927;28;20239;-78
2021/04/10 10:26:23;;;;;;;5.50;3.80;;;;;;;;;;4912084;28;20232;-78
2021/04/10 10:28:52;;;;;;;2.80;2.50;;;;;;;;;;4897183;28;20738;-77
2021/04/10 10:31:22;;;;;;;3.30;2.40;;;;;;;;;;4762356;28;20359;-78
2021/04/10 10:33:51;;;;;;;3.20;2.10;;;;;;;;;;4727026;28;20246;-77
2021/04/10 10:36:20;;;;;;;4.07;2.00;;;;;;;;;;4742970;28;20775;-78
2021/04/10 10:38:49;;;;;;;4.17;2.33;;;;;;;;;;4738232;28;20228;-75
2021/04/10 10:41:18;;;;;;;3.17;2.23;;;;;;;;;;4737205;28;25039;-76
2021/04/10 10:43:46;;;;;;;5.90;2.20;;;;;;;;;;4707779;28;26027;-78
2021/04/10 10:46:18;;;;;;;2.90;2.23;;;;;;;;;;4706908;28;20242;-76
2021/04/10 10:48:47;;;;;;;2.37;1.97;;;;;;;;;;4702546;28;20646;-77
2021/04/10 10:51:17;;;;;;;2.33;1.90;;;;;;;;;;4705209;28;25010;-77
2021/04/10 10:53:46;;;;;;;3.70;2.20;;;;;;;;;;4702227;28;25395;-78
2021/04/10 10:56:15;;;;;;;2.60;2.00;;;;;;;;;;4707583;28;22484;-78
2021/04/10 10:58:45;;;;;;;11.20;8.17;;;;;;;;;;4729919;28;20780;-78
2021/04/10 11:01:15;;;;;;;11.15;7.63;;;;;;;;;;4715689;28;25040;-76
2021/04/10 11:03:45;;;;;;;2.78;2.30;;;;;;;;;;4717217;28;20952;-77
2021/04/10 11:06:18;;;;;;;13.33;9.70;;;;;;;;;;4723557;28;20243;-79
2021/04/10 11:08:46;;;;;;;3.97;2.55;;;;;;;;;;4733435;28;20555;-78
2021/04/10 11:11:14;;;;;;;3.90;2.00;;;;;;;;;;4742223;28;20232;-79
2021/04/10 11:13:44;;;;;;;3.08;1.70;;;;;;;;;;4839746;29;20240;-78
2021/04/10 11:16:13;;;;;;;5.00;1.92;;;;;;;;;;4940981;28;20221;-79
2021/04/10 11:18:41;;;;;;;4.05;2.00;;;;;;;;;;4933242;28;20726;-78
2021/04/10 11:21:16;;;;;;;1.92;1.70;;;;;;;;;;4899676;28;20808;-79
2021/04/10 11:24:12;;;;;;;2.88;2.10;;;;;;;;;;4906666;28;20232;-77
2021/04/10 11:26:53;;;;;;;3.42;2.63;;;;;;;;;;4902878;28;20232;-78
2021/04/10 11:29:29;;;;;;;2.60;2.40;;;;;;;;;;4903650;28;20239;-77
2021/04/10 11:32:11;;;;;;;3.47;2.60;;;;;;;;;;4899885;28;20231;-79
2021/04/10 11:34:41;;;;;;;2.95;2.50;;;;;;;;;;4892358;29;20232;-78
2021/04/10 11:37:11;;;;;;;2.35;1.90;;;;;;;;;;4894380;28;20224;-79
2021/04/10 11:39:55;;;;;;;4.30;2.90;;;;;;;;;;4883509;28;20232;-78
2021/04/10 11:42:24;;;;;;;4.63;2.50;;;;;;;;;;4857582;28;20235;-76
2021/04/10 11:44:52;;;;;;;4.68;3.40;;;;;;;;;;4895642;28;20232;-76
2021/04/10 11:47:22;;;;;;;2.33;2.13;;;;;;;;;;4882241;28;20232;-77
2021/04/10 11:49:50;;;;;;;4.57;2.70;;;;;;;;;;4897907;28;20235;-76
2021/04/10 11:52:23;;;;;;;3.80;2.78;;;;;;;;;;4904306;28;20228;-77
2021/04/10 11:55:02;;;;;;;3.63;2.47;;;;;;;;;;4904578;28;20225;-77
2021/04/10 11:57:31;;;;;;;5.53;2.90;;;;;;;;;;4894300;28;20243;-79
2021/04/10 12:00:02;;;;;;;4.70;2.38;;;;;;;;;;4908145;28;20255;-77
2021/04/10 12:02:35;;;;;;;3.17;2.60;;;;;;;;;;4756207;28;20673;-77
2021/04/10 12:05:25;;;;;;;2.80;2.58;;;;;;;;;;4882113;28;20231;-76
2021/04/10 12:08:06;;;;;;;3.33;2.38;;;;;;;;;;4783397;28;20228;-78
2021/04/10 12:10:36;;;;;;;3.42;2.50;;;;;;;;;;4727203;28;20228;-77
2021/04/10 12:13:04;;;;;;;2.78;2.30;;;;;;;;;;4706305;28;20775;-78
2021/04/10 12:15:33;;;;;;;3.67;3.20;;;;;;;;;;4719141;28;20462;-77
2021/04/10 12:18:01;;;;;;;2.60;2.15;;;;;;;;;;4714655;28;20232;-77
2021/04/10 12:20:29;;;;;;;3.30;1.88;;;;;;;;;;4715054;28;20789;-77
2021/04/10 12:22:57;;;;;;;4.82;1.88;;;;;;;;;;4739291;28;20907;-77
2021/04/10 12:25:24;;;;;;;2.45;2.22;;;;;;;;;;4771538;28;20266;-78
2021/04/10 12:27:53;;;;;;;2.45;2.15;;;;;;;;;;4800359;28;20236;-79
2021/04/10 12:30:22;;;;;;;3.25;2.20;;;;;;;;;;4899278;28;20269;-79
2021/04/10 12:32:49;;;;;;;5.13;3.50;;;;;;;;;;4900698;28;20228;-79
2021/04/10 12:35:17;;;;;;;2.33;2.05;;;;;;;;;;4907892;29;20243;-79
2021/04/10 12:37:44;;;;;;;2.63;2.00;;;;;;;;;;4903278;28;20244;-79
2021/04/10 12:40:13;;;;;;;3.60;2.00;;;;;;;;;;4907999;28;20237;-79
2021/04/10 12:42:41;;;;;;;3.20;2.40;;;;;;;;;;4884920;29;20321;-79
2021/04/10 12:45:11;;;;;;;2.30;2.17;;;;;;;;;;4887814;29;20220;-79
2021/04/10 12:47:38;;;;;;;2.90;2.67;;;;;;;;;;4908747;28;20229;-79
2021/04/10 12:50:07;;;;;;;2.65;2.45;;;;;;;;;;4881497;28;20233;-78
2021/04/10 12:52:36;;;;;;;3.80;2.63;;;;;;;;;;4909017;29;20224;-78
2021/04/10 12:55:04;;;;;;;5.30;2.97;;;;;;;;;;4917498;28;20594;-78
2021/04/10 12:57:33;;;;;;;3.63;2.50;;;;;;;;;;4841942;28;20286;-79
2021/04/10 13:00:01;;;;;;;3.35;2.20;;;;;;;;;;4820518;28;20254;-79
2021/04/10 13:02:29;;;;;;;3.60;2.53;;;;;;;;;;4896930;29;20220;-79
2021/04/10 13:04:56;;;;;;;3.10;2.42;;;;;;;;;;4895049;29;20232;-79
2021/04/10 13:07:24;;;;;;;2.40;2.20;;;;;;;;;;4913635;28;20228;-79
2021/04/10 13:09:52;;;;;;;4.22;2.60;;;;;;;;;;4914447;29;20236;-79
2021/04/10 13:12:20;;;;;;;3.55;2.42;;;;;;;;;;4916005;29;20232;-79
2021/04/10 13:14:48;;;;;;;3.25;2.88;;;;;;;;;;4917762;28;20243;-79
2021/04/10 13:17:16;;;;;;;2.97;2.72;;;;;;;;;;4901979;28;20693;-77
2021/04/10 13:19:44;;;;;;;3.80;2.88;;;;;;;;;;4910874;28;20311;-79
2021/04/10 13:22:12;;;;;;;3.55;2.97;;;;;;;;;;4908427;28;20243;-78
2021/04/10 13:24:40;;;;;;;3.42;2.60;;;;;;;;;;4881234;28;20721;-78
2021/04/10 13:27:08;;;;;;;2.70;2.50;;;;;;;;;;4903014;28;20232;-78
2021/04/10 13:29:36;;;;;;;3.35;2.70;;;;;;;;;;4907501;29;20237;-78
2021/04/10 13:32:05;;;;;;;2.70;2.50;;;;;;;;;;4892373;28;20232;-78
2021/04/10 13:34:32;;;;;;;3.00;2.80;;;;;;;;;;4749319;28;20724;-78
2021/04/10 13:37:01;;;;;;;4.50;2.67;;;;;;;;;;4706479;28;20363;-78
2021/04/10 13:39:30;;;;;;;2.90;2.70;;;;;;;;;;4720893;28;20758;-79
2021/04/10 13:41:58;;;;;;;3.67;2.63;;;;;;;;;;4756443;28;20239;-80
2021/04/10 13:44:26;;;;;;;3.85;2.60;;;;;;;;;;4754927;28;21934;-79
2021/04/10 13:46:56;;;;;;;3.15;2.80;;;;;;;;;;4881716;28;20239;-80
2021/04/10 13:49:24;;;;;;;3.83;2.55;;;;;;;;;;4866951;28;20657;-79
2021/04/10 13:51:52;;;;;;;2.67;2.25;;;;;;;;;;4903654;29;20240;-79
2021/04/10 13:54:20;;;;;;;3.00;2.70;;;;;;;;;;4901445;28;20228;-80
2021/04/10 13:56:48;;;;;;;4.20;2.58;;;;;;;;;;4749272;28;20742;-80
2021/04/10 13:59:19;;;;;;;2.90;2.53;;;;;;;;;;4744182;28;20275;-80
2021/04/10 14:01:46;;;;;;;2.97;2.20;;;;;;;;;;4739823;28;20360;-79
2021/04/10 14:04:20;;;;;;;3.03;2.40;;;;;;;;;;4725829;28;21346;-80
2021/04/10 14:06:48;;;;;;;2.55;2.35;;;;;;;;;;4750405;28;20943;-77
2021/04/10 14:09:16;;;;;;;2.72;2.30;;;;;;;;;;4765121;28;20370;-80
2021/04/10 14:11:44;;;;;;;2.60;2.22;;;;;;;;;;4750020;28;20358;-78
2021/04/10 14:14:11;;;;;;;2.33;2.13;;;;;;;;;;4728638;28;20331;-78
2021/04/10 14:16:39;;;;;;;2.78;2.53;;;;;;;;;;4763378;28;24710;-78
2021/04/10 14:19:07;;;;;;;3.42;2.40;;;;;;;;;;4789122;28;20247;-80
2021/04/10 14:21:34;;;;;;;2.13;1.90;;;;;;;;;;4798142;28;20544;-79
2021/04/10 14:24:04;;;;;;;2.45;2.08;;;;;;;;;;4894417;29;20236;-77
2021/04/10 14:26:32;;;;;;;2.45;2.22;;;;;;;;;;4942261;28;20232;-79
2021/04/10 14:28:59;;;;;;;3.63;2.63;;;;;;;;;;4903652;28;20240;-78
2021/04/10 14:31:27;;;;;;;5.45;2.60;;;;;;;;;;4906587;28;20243;-78
2021/04/10 14:33:55;;;;;;;6.45;2.22;;;;;;;;;;4903158;28;20228;-80
2021/04/10 14:36:23;;;;;;;2.25;1.90;;;;;;;;;;4904926;28;20607;-79
2021/04/10 14:38:51;;;;;;;6.60;2.22;;;;;;;;;;4902015;28;20236;-79
2021/04/10 14:41:19;;;;;;;2.20;1.90;;;;;;;;;;4903759;28;20656;-79
2021/04/10 14:43:48;;;;;;;2.42;2.08;;;;;;;;;;4903484;28;20228;-79
2021/04/10 14:46:16;;;;;;;1.83;1.65;;;;;;;;;;4887098;28;20217;-81
2021/04/10 14:48:45;;;;;;;3.13;2.58;;;;;;;;;;4904084;28;20231;-79
2021/04/10 14:51:13;;;;;;;3.75;2.20;;;;;;;;;;4829577;28;20232;-79
2021/04/10 14:53:41;;;;;;;2.83;2.33;;;;;;;;;;4773969;28;20315;-79
2021/04/10 14:56:10;;;;;;;4.03;2.10;;;;;;;;;;4778886;28;20268;-79
2021/04/10 14:58:39;;;;;;;2.53;2.33;;;;;;;;;;4780393;28;20745;-77
2021/04/10 15:01:07;;;;;;;3.05;2.53;;;;;;;;;;4784327;28;21653;-77
2021/04/10 15:03:36;;;;;;;4.28;3.88;;;;;;;;;;4773452;28;20232;-79